Time;durP1;ratioP1;P1;durP2;ratioP2;P2;SDS_P1;SDS_P2;PMS_P1;PMS_P2;Temp;Humidity;BMP_temperature;BMP_pressure;BME280_temperature;BME280_humidity;BME280_pressure;Samples;Min_cycle;Max_cycle;Signal;HPM_P1;HPM_P2
2021/05/15 00:01:38;;;;;;;5.93;3.93;;;;;;;12.34;70.51;98984.27;233644;1174;115111;-66
2021/05/15 00:06:41;;;;;;;2.53;2.30;;;;;;;12.31;70.51;98982.13;233023;1174;115835;-69
2021/05/15 00:11:44;;;;;;;4.33;3.73;;;;;;;12.27;70.78;98983.72;232652;1174;115179;-67
2021/05/15 00:16:46;;;;;;;5.83;4.50;;;;;;;12.21;70.65;98986.66;232448;1167;115566;-68
2021/05/15 00:21:51;;;;;;;5.10;3.95;;;;;;;12.16;70.74;98987.45;232692;1168;116245;-68
2021/05/15 00:26:54;;;;;;;4.98;4.03;;;;;;;12.14;70.85;98993.05;235019;1174;115134;-66
2021/05/15 00:31:56;;;;;;;4.80;3.55;;;;;;;12.07;70.64;98986.34;234896;1177;115323;-66
2021/05/15 00:36:59;;;;;;;7.50;4.70;;;;;;;12.02;70.30;98992.47;232662;1176;117420;-67
2021/05/15 00:42:01;;;;;;;4.45;4.05;;;;;;;11.91;70.47;98998.86;233787;1176;116257;-67
2021/05/15 00:47:04;;;;;;;5.60;3.90;;;;;;;11.76;70.47;99004.08;233236;1177;116079;-67
2021/05/15 00:52:07;;;;;;;5.45;3.58;;;;;;;11.65;70.46;99000.55;232590;1174;117640;-67
2021/05/15 00:57:12;;;;;;;4.60;4.20;;;;;;;11.51;70.20;99009.30;232483;1176;116654;-68
2021/05/15 01:02:14;;;;;;;4.58;4.18;;;;;;;11.42;70.57;98998.30;233206;1174;116214;-67
2021/05/15 01:07:16;;;;;;;3.83;3.50;;;;;;;11.32;70.52;99009.70;232601;1174;116945;-67
2021/05/15 01:12:19;;;;;;;4.53;3.93;;;;;;;11.21;70.63;99017.91;232669;1176;116428;-66
2021/05/15 01:17:21;;;;;;;6.35;4.15;;;;;;;11.11;70.58;99006.09;233071;1175;116404;-68
2021/05/15 01:22:24;;;;;;;4.53;4.10;;;;;;;11.00;70.88;99009.77;232988;1174;115875;-67
2021/05/15 01:27:26;;;;;;;9.28;4.28;;;;;;;10.93;70.77;99011.03;233120;1175;116261;-67
2021/05/15 01:32:29;;;;;;;7.15;4.03;;;;;;;10.78;70.83;99017.83;233135;1176;115835;-67
2021/05/15 01:37:32;;;;;;;6.68;4.15;;;;;;;10.74;70.64;99013.25;232985;1174;114895;-68
2021/05/15 01:42:34;;;;;;;5.13;3.83;;;;;;;10.68;70.98;99015.09;233471;1174;115066;-67
2021/05/15 01:47:37;;;;;;;5.88;4.98;;;;;;;10.62;70.61;99017.95;232527;1172;115459;-67
2021/05/15 01:52:41;;;;;;;6.73;3.83;;;;;;;10.55;70.95;99017.34;233973;1174;116090;-67
2021/05/15 01:57:43;;;;;;;4.07;3.67;;;;;;;10.49;71.34;99013.82;232637;1174;115120;-66
2021/05/15 02:02:45;;;;;;;6.20;3.03;;;;;;;10.40;71.01;99009.99;232895;1174;115635;-67
2021/05/15 02:07:47;;;;;;;5.98;4.03;;;;;;;10.31;70.82;99011.52;232994;1174;115520;-67
2021/05/15 02:12:50;;;;;;;4.20;3.28;;;;;;;10.17;71.53;99011.05;234479;1174;115487;-67
2021/05/15 02:17:52;;;;;;;9.27;4.57;;;;;;;10.15;71.13;99015.83;235074;1174;115238;-65
2021/05/15 02:22:56;;;;;;;3.93;3.08;;;;;;;10.12;71.06;99014.46;235003;1174;115197;-65
2021/05/15 02:27:59;;;;;;;1.60;1.50;;;;;;;10.07;71.04;99010.95;234361;1167;115593;-67
2021/05/15 02:33:02;;;;;;;5.25;2.65;;;;;;;9.86;71.10;99006.42;233260;1174;115511;-67
2021/05/15 02:38:07;;;;;;;3.28;3.05;;;;;;;9.82;71.01;99007.97;234612;1176;115567;-67
2021/05/15 02:43:10;;;;;;;3.65;3.10;;;;;;;9.77;71.95;99000.75;232783;1175;116022;-67
2021/05/15 02:48:16;;;;;;;3.68;3.35;;;;;;;9.68;71.42;99008.35;233741;1176;116446;-66
2021/05/15 02:53:20;;;;;;;3.87;3.17;;;;;;;9.62;71.97;99017.31;233898;1174;116132;-66
2021/05/15 02:58:21;;;;;;;9.30;3.00;;;;;;;9.60;71.52;99022.07;232684;1174;116248;-66
2021/05/15 03:03:24;;;;;;;3.67;2.73;;;;;;;9.54;71.81;99022.23;232653;1174;116689;-66
2021/05/15 03:08:27;;;;;;;2.80;2.30;;;;;;;9.52;73.02;99027.80;233387;1176;116116;-66
2021/05/15 03:13:29;;;;;;;4.58;2.98;;;;;;;9.43;72.46;99026.63;232748;1176;115598;-66
2021/05/15 03:18:31;;;;;;;3.93;3.53;;;;;;;9.42;72.31;99033.00;232720;1176;116107;-66
2021/05/15 03:23:33;;;;;;;3.10;2.80;;;;;;;9.45;72.20;99041.30;233666;1174;115976;-66
2021/05/15 03:28:35;;;;;;;4.55;3.45;;;;;;;9.49;72.37;99046.91;232689;1175;117447;-67
2021/05/15 03:33:38;;;;;;;2.45;2.25;;;;;;;9.62;72.69;99046.58;232615;1174;117029;-67
2021/05/15 03:38:40;;;;;;;3.50;3.10;;;;;;;9.78;72.55;99051.05;233402;1174;115090;-66
2021/05/15 03:43:43;;;;;;;5.03;2.93;;;;;;;10.02;72.65;99053.50;233076;1174;115214;-67
2021/05/15 03:48:45;;;;;;;3.43;2.78;;;;;;;10.57;71.69;99057.88;232432;1176;116313;-68
2021/05/15 03:53:47;;;;;;;2.93;2.70;;;;;;;10.68;71.61;99055.07;232753;1172;116857;-67
2021/05/15 03:58:50;;;;;;;3.80;3.23;;;;;;;10.79;71.31;99064.76;232583;1175;116267;-67
2021/05/15 04:03:52;;;;;;;4.93;3.47;;;;;;;10.94;70.58;99068.63;232638;1174;117774;-66
2021/05/15 04:08:55;;;;;;;5.05;3.58;;;;;;;11.28;70.81;99059.32;232703;1175;116552;-67
2021/05/15 04:14:00;;;;;;;2.13;2.03;;;;;;;11.96;69.32;99067.48;233763;1176;116974;-67
2021/05/15 04:19:03;;;;;;;2.88;2.35;;;;;;;13.30;67.98;99074.52;233179;1176;116656;-68
2021/05/15 04:24:06;;;;;;;2.20;2.00;;;;;;;13.55;67.31;99081.72;235021;1176;116143;-65
2021/05/15 04:29:08;;;;;;;2.50;2.30;;;;;;;13.36;66.81;99078.00;235251;1174;116803;-64
2021/05/15 04:34:11;;;;;;;5.38;2.58;;;;;;;12.92;66.26;99086.51;235160;1176;115357;-65
2021/05/15 04:39:13;;;;;;;5.98;2.53;;;;;;;13.41;66.12;99096.75;235096;1174;115098;-65
2021/05/15 04:44:16;;;;;;;3.00;2.57;;;;;;;13.92;65.10;99096.66;233114;1174;115031;-67
2021/05/15 04:49:20;;;;;;;3.57;2.30;;;;;;;14.07;64.87;99086.69;233151;1174;115949;-67
2021/05/15 04:54:23;;;;;;;2.23;1.70;;;;;;;15.53;62.79;99086.09;233562;1174;115154;-68
2021/05/15 04:59:25;;;;;;;2.83;2.58;;;;;;;16.02;62.21;99090.46;233029;1174;115272;-65
2021/05/15 05:04:27;;;;;;;1.98;1.88;;;;;;;16.36;60.80;99087.64;233288;1174;115319;-65
2021/05/15 05:09:30;;;;;;;2.50;1.67;;;;;;;18.98;57.39;99088.70;232551;1174;116001;-65
2021/05/15 05:14:33;;;;;;;2.77;1.70;;;;;;;23.32;53.63;99089.05;233171;1174;115129;-65
2021/05/15 05:19:35;;;;;;;2.20;1.43;;;;;;;26.36;48.98;99096.59;232639;1174;115442;-66
2021/05/15 05:24:39;;;;;;;2.65;2.30;;;;;;;28.74;45.20;99101.07;232584;1174;115278;-66
2021/05/15 05:29:42;;;;;;;3.08;1.65;;;;;;;30.37;41.75;99113.06;232618;1174;115564;-66
2021/05/15 05:34:45;;;;;;;2.93;2.08;;;;;;;31.79;39.33;99124.00;232561;1174;115989;-67
2021/05/15 05:39:47;;;;;;;3.80;2.08;;;;;;;32.83;36.99;99128.30;232462;1174;115749;-68
2021/05/15 05:44:50;;;;;;;1.50;1.40;;;;;;;33.51;34.77;99134.38;233369;1174;116062;-71
2021/05/15 05:49:52;;;;;;;1.38;1.28;;;;;;;33.83;32.24;99134.20;232391;1174;115710;-72
2021/05/15 05:54:54;;;;;;;2.57;1.90;;;;;;;34.26;31.73;99133.86;233348;1174;118627;-71
2021/05/15 05:59:56;;;;;;;2.83;1.60;;;;;;;32.92;31.63;99141.70;233502;1174;116692;-69
2021/05/15 06:04:59;;;;;;;2.03;1.88;;;;;;;32.17;30.14;99141.73;233488;1174;117187;-69
2021/05/15 06:10:01;;;;;;;1.78;1.68;;;;;;;32.17;30.52;99143.70;232319;1176;116261;-70
2021/05/15 06:15:04;;;;;;;2.43;1.80;;;;;;;32.57;29.85;99159.88;232459;1176;116704;-69
2021/05/15 06:20:06;;;;;;;6.57;1.90;;;;;;;32.19;29.10;99150.40;235019;1174;120122;-73
2021/05/15 06:25:09;;;;;;;1.83;1.73;;;;;;;30.82;29.38;99160.55;234902;1174;116001;-69
2021/05/15 06:30:12;;;;;;;1.28;1.25;;;;;;;29.06;29.58;99156.40;233926;1174;115283;-71
2021/05/15 06:35:14;;;;;;;2.80;1.75;;;;;;;27.14;31.52;99168.67;235017;1174;115882;-70
2021/05/15 06:40:16;;;;;;;3.93;2.10;;;;;;;26.10;32.56;99168.13;233436;1174;115693;-71
2021/05/15 06:45:18;;;;;;;4.70;2.50;;;;;;;25.11;33.51;99168.89;234272;1174;116197;-73
2021/05/15 06:50:20;;;;;;;3.83;2.48;;;;;;;24.56;34.44;99179.61;233413;1174;115496;-72
2021/05/15 06:55:23;;;;;;;2.63;2.43;;;;;;;23.74;34.92;99174.92;232606;1174;116096;-66
2021/05/15 07:00:26;;;;;;;4.20;2.13;;;;;;;23.50;35.51;99172.09;233445;1174;139431;-67
2021/05/15 07:05:28;;;;;;;4.17;2.70;;;;;;;24.46;35.77;99178.92;232365;1174;115826;-67
2021/05/15 07:10:31;;;;;;;4.63;2.65;;;;;;;25.34;35.21;99169.19;232881;1174;115438;-66
2021/05/15 07:15:33;;;;;;;6.10;2.95;;;;;;;25.77;34.68;99170.38;232519;1174;115507;-67
2021/05/15 07:20:34;;;;;;;4.23;3.08;;;;;;;25.83;34.75;99171.72;232418;1174;115593;-67
2021/05/15 07:25:37;;;;;;;4.13;3.00;;;;;;;25.86;34.83;99176.48;232433;1174;115933;-66
2021/05/15 07:30:39;;;;;;;3.30;2.85;;;;;;;25.47;34.93;99180.83;232601;1174;115766;-67
2021/05/15 07:35:41;;;;;;;3.23;2.65;;;;;;;24.88;35.48;99177.89;232441;1174;116315;-66
2021/05/15 07:40:43;;;;;;;7.87;3.30;;;;;;;24.71;35.72;99179.73;232865;1171;114960;-67
2021/05/15 07:45:46;;;;;;;3.88;2.80;;;;;;;24.74;36.00;99183.70;232765;1174;115902;-67
2021/05/15 07:50:49;;;;;;;3.58;3.28;;;;;;;24.76;36.61;99181.44;233476;1174;115540;-68
2021/05/15 07:55:52;;;;;;;9.30;3.17;;;;;;;24.25;36.36;99193.77;233855;1174;114901;-68
2021/05/15 08:00:54;;;;;;;7.18;3.45;;;;;;;24.04;36.42;99166.60;232883;1167;115486;-68
2021/05/15 08:05:57;;;;;;;5.90;2.60;;;;;;;23.37;36.76;99173.95;232286;1174;115652;-66
2021/05/15 08:10:59;;;;;;;2.93;2.63;;;;;;;23.27;37.43;99176.27;234257;1174;115662;-67
2021/05/15 08:16:02;;;;;;;5.28;3.10;;;;;;;23.32;38.25;99173.34;233678;1174;114891;-67
2021/05/15 08:21:06;;;;;;;3.10;2.90;;;;;;;23.37;37.73;99173.95;233124;1170;116391;-67
2021/05/15 08:26:11;;;;;;;7.20;3.28;;;;;;;23.53;38.06;99170.66;232409;1174;116120;-67
2021/05/15 08:31:14;;;;;;;2.87;2.67;;;;;;;23.34;38.16;99176.53;235062;1174;114767;-69
2021/05/15 08:36:17;;;;;;;3.47;3.27;;;;;;;22.83;38.41;99183.94;234428;1174;115635;-66
2021/05/15 08:41:20;;;;;;;4.63;2.98;;;;;;;22.82;38.34;99194.02;235027;1174;120760;-67
2021/05/15 08:46:24;;;;;;;3.20;2.97;;;;;;;22.55;38.65;99180.07;233191;1174;116235;-66
2021/05/15 08:51:26;;;;;;;3.73;3.15;;;;;;;22.14;38.71;99184.22;232627;1174;115500;-67
2021/05/15 08:56:30;;;;;;;4.08;2.95;;;;;;;21.74;39.00;99184.44;232565;1174;115204;-67
2021/05/15 09:01:34;;;;;;;4.15;2.88;;;;;;;21.86;39.05;99178.36;233334;1174;116173;-68
2021/05/15 09:06:42;;;;;;;5.93;2.63;;;;;;;22.05;39.49;99191.59;232844;1174;115216;-68
2021/05/15 09:11:47;;;;;;;4.27;2.33;;;;;;;21.80;39.01;99193.21;233124;1174;115891;-68
2021/05/15 09:16:53;;;;;;;5.90;3.13;;;;;;;21.77;39.64;99191.94;233160;1170;115110;-67
2021/05/15 09:22:06;;;;;;;2.93;2.73;;;;;;;21.95;39.80;99181.86;232665;1174;116499;-68
2021/05/15 09:27:12;;;;;;;4.55;3.75;;;;;;;21.95;39.93;99184.58;232759;1174;115415;-68
2021/05/15 09:32:33;;;;;;;7.70;3.90;;;;;;;21.77;39.44;99185.71;233047;1174;115166;-68
2021/05/15 09:37:41;;;;;;;5.25;3.63;;;;;;;21.58;39.99;99180.64;232495;1174;115627;-68
2021/05/15 09:42:50;;;;;;;3.20;2.83;;;;;;;21.56;39.90;99179.37;232701;1174;115713;-68
2021/05/15 09:47:55;;;;;;;3.07;2.87;;;;;;;21.58;40.43;99182.56;233067;1174;116331;-68
2021/05/15 09:53:11;;;;;;;2.95;2.75;;;;;;;21.96;40.53;99183.45;232762;1174;117387;-68
2021/05/15 09:58:15;;;;;;;4.20;3.80;;;;;;;22.21;39.88;99183.73;232545;1170;116179;-68
2021/05/15 10:03:21;;;;;;;3.60;2.70;;;;;;;22.46;40.38;99202.63;233221;1174;116496;-68
2021/05/15 10:08:25;;;;;;;3.80;2.55;;;;;;;22.20;39.23;99188.36;232859;1171;115999;-69
2021/05/15 10:13:29;;;;;;;3.75;2.95;;;;;;;22.20;39.31;99191.08;233225;1174;117082;-69
2021/05/15 10:18:34;;;;;;;5.55;4.20;;;;;;;22.18;39.25;99185.97;233667;1174;116202;-68
2021/05/15 10:23:44;;;;;;;2.95;2.40;;;;;;;22.30;39.07;99192.64;233270;1174;115818;-68
2021/05/15 10:29:01;;;;;;;3.25;2.95;;;;;;;22.31;39.03;99194.24;234547;1174;115442;-68
2021/05/15 10:34:05;;;;;;;3.17;2.53;;;;;;;21.96;38.61;99188.09;235283;1174;115948;-68
2021/05/15 10:39:08;;;;;;;3.07;2.87;;;;;;;21.75;38.92;99183.32;235066;1174;115945;-68
2021/05/15 10:44:13;;;;;;;2.17;1.80;;;;;;;22.29;39.44;99185.63;235101;1174;115326;-67
2021/05/15 10:49:24;;;;;;;4.38;3.18;;;;;;;22.45;38.55;99195.61;235149;1174;118812;-66
2021/05/15 10:54:32;;;;;;;11.27;3.13;;;;;;;22.64;38.54;99186.23;233755;1174;115071;-66
2021/05/15 10:59:37;;;;;;;3.10;2.90;;;;;;;22.58;37.82;99182.14;233007;1174;115115;-68
2021/05/15 11:04:52;;;;;;;5.30;3.27;;;;;;;22.55;37.83;99174.64;234054;1174;117693;-68
2021/05/15 11:09:58;;;;;;;3.63;3.28;;;;;;;22.07;37.40;99173.06;232983;1174;116127;-66
2021/05/15 11:15:04;;;;;;;3.73;3.15;;;;;;;21.74;37.83;99160.02;232543;1174;115491;-68
2021/05/15 11:20:19;;;;;;;3.93;3.63;;;;;;;21.87;37.95;99160.17;234186;1170;116021;-67
2021/05/15 11:25:27;;;;;;;3.40;3.10;;;;;;;22.12;37.94;99153.89;232881;1174;115841;-68
2021/05/15 11:30:41;;;;;;;4.18;3.48;;;;;;;21.89;37.61;99161.44;232640;1175;115961;-68
2021/05/15 11:35:48;;;;;;;3.57;3.27;;;;;;;22.00;38.39;99151.05;232741;1174;115773;-70
2021/05/15 11:41:01;;;;;;;3.10;2.80;;;;;;;22.24;38.04;99154.02;233020;1174;115874;-68
2021/05/15 11:46:10;;;;;;;4.33;2.07;;;;;;;22.39;37.72;99134.44;232670;1174;116608;-67
2021/05/15 11:51:14;;;;;;;3.63;2.97;;;;;;;22.54;37.60;99130.39;233412;1169;116310;-67
2021/05/15 11:56:26;;;;;;;2.93;2.50;;;;;;;22.46;37.07;99125.79;232646;1174;115503;-68
2021/05/15 12:01:37;;;;;;;1.68;1.58;;;;;;;22.62;37.27;99121.39;232602;1174;115790;-68
2021/05/15 12:06:41;;;;;;;2.57;2.37;;;;;;;22.85;36.77;99113.75;233073;1174;116167;-71
2021/05/15 12:11:46;;;;;;;2.68;2.15;;;;;;;22.84;36.54;99123.03;233157;1175;116273;-69
2021/05/15 12:16:52;;;;;;;4.00;2.33;;;;;;;22.58;36.02;99117.74;232592;1174;115918;-67
2021/05/15 12:22:01;;;;;;;2.30;1.40;;;;;;;22.20;36.13;99112.34;232963;1169;116213;-67
2021/05/15 12:27:14;;;;;;;3.13;2.10;;;;;;;22.25;35.99;99106.73;233616;1174;114780;-66
2021/05/15 12:32:25;;;;;;;2.00;1.90;;;;;;;22.11;36.23;99098.01;233604;1174;114975;-65
2021/05/15 12:37:34;;;;;;;5.37;3.00;;;;;;;21.59;36.76;99103.59;233470;1174;115739;-66
2021/05/15 12:42:39;;;;;;;2.33;2.23;;;;;;;21.51;37.27;99096.26;235115;1174;114720;-65
2021/05/15 12:47:43;;;;;;;2.48;2.10;;;;;;;21.94;37.51;99084.50;235094;1174;115137;-65
2021/05/15 12:52:46;;;;;;;2.60;2.40;;;;;;;22.09;35.99;99086.68;234357;1174;116464;-69
2021/05/15 12:57:58;;;;;;;2.20;2.00;;;;;;;22.33;36.80;99072.50;234453;1174;115609;-69
2021/05/15 13:03:04;;;;;;;2.33;1.70;;;;;;;22.21;36.27;99070.50;234382;1174;116040;-71
2021/05/15 13:08:09;;;;;;;3.68;2.98;;;;;;;21.97;36.61;99068.36;232720;1174;115534;-68
2021/05/15 13:13:12;;;;;;;4.78;1.83;;;;;;;21.91;36.76;99056.09;233347;1174;115361;-72
2021/05/15 13:18:22;;;;;;;2.28;2.10;;;;;;;21.86;37.06;99058.98;233872;1173;115338;-69
2021/05/15 13:23:25;;;;;;;3.17;1.87;;;;;;;21.94;36.15;99054.64;232645;1174;115911;-70
2021/05/15 13:28:29;;;;;;;5.23;2.10;;;;;;;22.06;36.33;99054.76;232371;1174;115722;-68
2021/05/15 13:33:33;;;;;;;1.58;1.55;;;;;;;22.34;36.23;99050.45;232966;1174;115855;-69
2021/05/15 13:38:36;;;;;;;2.90;2.27;;;;;;;22.41;35.77;99045.30;232867;1174;115323;-69
2021/05/15 13:43:39;;;;;;;3.08;2.13;;;;;;;22.48;35.86;99045.58;232612;1174;115563;-69
2021/05/15 13:48:42;;;;;;;3.23;1.58;;;;;;;22.28;34.53;99038.21;233103;1174;115520;-69
2021/05/15 13:53:46;;;;;;;1.47;1.30;;;;;;;22.04;34.98;99044.23;232569;1174;116593;-69
2021/05/15 13:58:49;;;;;;;1.77;1.67;;;;;;;21.71;35.62;99046.73;232690;1175;195933;-69
2021/05/15 14:03:53;;;;;;;6.25;2.00;;;;;;;21.46;35.64;99048.41;233253;1174;116838;-69
2021/05/15 14:08:59;;;;;;;1.65;1.53;;;;;;;21.39;35.71;99036.49;232368;1175;117015;-68
2021/05/15 14:14:03;;;;;;;1.63;1.53;;;;;;;21.33;36.39;99035.86;232565;1174;117543;-69
2021/05/15 14:19:07;;;;;;;2.50;2.30;;;;;;;21.36;36.61;99035.22;233125;1174;117339;-69
2021/05/15 14:24:09;;;;;;;3.10;2.30;;;;;;;21.50;35.83;99026.88;234331;1175;116416;-68
2021/05/15 14:29:14;;;;;;;2.58;1.63;;;;;;;21.57;35.70;99023.67;232845;1174;116184;-68
2021/05/15 14:34:18;;;;;;;1.60;1.50;;;;;;;21.72;35.99;99013.06;233238;1175;116530;-68
2021/05/15 14:39:22;;;;;;;1.70;1.60;;;;;;;21.50;35.79;99010.60;233126;1174;116250;-70
2021/05/15 14:44:25;;;;;;;2.48;1.75;;;;;;;21.41;36.20;99015.25;234876;1174;116362;-64
2021/05/15 14:49:29;;;;;;;5.45;2.23;;;;;;;21.43;36.71;99013.02;234943;1174;115506;-65
2021/05/15 14:54:33;;;;;;;1.85;1.75;;;;;;;21.48;36.71;99010.92;233486;1176;116718;-65
2021/05/15 14:59:38;;;;;;;1.87;1.77;;;;;;;21.60;36.64;99014.89;233600;1174;115883;-65
2021/05/15 15:04:43;;;;;;;1.73;1.63;;;;;;;21.61;36.11;99001.00;233250;1174;116535;-66
2021/05/15 15:09:46;;;;;;;6.00;2.37;;;;;;;21.58;35.97;98990.00;232372;1174;115914;-68
2021/05/15 15:14:49;;;;;;;11.23;6.85;;;;;;;21.53;36.67;98984.75;233736;1174;115964;-69
2021/05/15 15:19:52;;;;;;;59.15;20.85;;;;;;;21.47;36.78;98970.58;232894;1174;116740;-67
2021/05/15 15:24:55;;;;;;;5.65;3.43;;;;;;;21.32;36.78;98980.05;233015;1174;116372;-67
2021/05/15 15:29:59;;;;;;;5.73;3.37;;;;;;;21.21;36.65;98976.09;232538;1174;115964;-66
2021/05/15 15:35:04;;;;;;;2.13;1.93;;;;;;;21.13;37.44;98972.23;233183;1174;117099;-66
2021/05/15 15:40:08;;;;;;;3.13;2.50;;;;;;;21.08;37.39;98972.44;232647;1173;115703;-67
2021/05/15 15:45:11;;;;;;;2.17;1.73;;;;;;;21.00;37.28;98975.16;233059;1174;115735;-69
2021/05/15 15:50:15;;;;;;;6.35;3.15;;;;;;;20.81;37.93;98964.65;233176;1174;116311;-66
2021/05/15 15:55:18;;;;;;;3.25;1.90;;;;;;;20.48;38.15;98959.73;233185;1174;117238;-66
2021/05/15 16:00:21;;;;;;;3.43;2.33;;;;;;;20.36;38.03;98959.55;233064;1174;116081;-67
2021/05/15 16:05:26;;;;;;;1.67;1.60;;;;;;;20.25;38.54;98952.85;233434;1174;116202;-68
2021/05/15 16:10:31;;;;;;;6.43;2.20;;;;;;;20.10;39.16;98947.92;232677;1174;115760;-68
2021/05/15 16:15:37;;;;;;;1.88;1.75;;;;;;;20.03;39.30;98936.76;232910;1174;115435;-67
2021/05/15 16:20:40;;;;;;;8.53;2.57;;;;;;;19.97;38.33;98932.61;233568;1174;115598;-67
2021/05/15 16:25:44;;;;;;;2.70;1.93;;;;;;;19.96;39.00;98926.40;233872;1174;140930;-67
2021/05/15 16:30:48;;;;;;;3.15;2.90;;;;;;;19.96;39.08;98922.90;234296;1174;116049;-68
2021/05/15 16:35:53;;;;;;;2.15;2.00;;;;;;;19.94;40.22;98925.12;234217;1174;115350;-68
2021/05/15 16:40:57;;;;;;;1.70;1.60;;;;;;;19.81;39.95;98918.75;234020;1174;116312;-69
2021/05/15 16:46:00;;;;;;;3.38;2.05;;;;;;;19.73;39.66;98919.52;234958;1174;116293;-68
2021/05/15 16:51:04;;;;;;;2.15;1.83;;;;;;;19.58;40.04;98909.92;234944;1174;116276;-69
2021/05/15 16:56:12;;;;;;;2.55;2.38;;;;;;;19.41;40.76;98912.55;234928;1174;115331;-70
2021/05/15 17:01:17;;;;;;;3.33;2.00;;;;;;;19.22;41.04;98904.70;234236;1174;116549;-68
2021/05/15 17:06:21;;;;;;;2.48;2.33;;;;;;;18.99;40.87;98901.23;234524;1174;115700;-66
2021/05/15 17:11:24;;;;;;;8.05;1.90;;;;;;;18.84;41.81;98885.44;233453;1174;115088;-65
2021/05/15 17:16:26;;;;;;;2.40;2.20;;;;;;;18.75;43.16;98895.39;233559;1174;117027;-65
2021/05/15 17:21:29;;;;;;;2.70;2.33;;;;;;;18.63;43.63;98892.47;232301;1174;117125;-67
2021/05/15 17:26:34;;;;;;;2.60;2.40;;;;;;;18.52;44.62;98881.09;232752;1174;117784;-66
2021/05/15 17:31:36;;;;;;;6.28;4.08;;;;;;;18.38;44.66;98886.53;232785;1167;116155;-68
2021/05/15 17:36:41;;;;;;;6.90;3.43;;;;;;;18.18;45.22;98889.72;233515;1174;116228;-66
2021/05/15 17:41:44;;;;;;;7.10;4.20;;;;;;;18.00;45.77;98888.79;233502;1174;116091;-66
2021/05/15 17:46:47;;;;;;;3.87;3.00;;;;;;;17.85;46.67;98883.72;232617;1174;116128;-66
2021/05/15 17:51:51;;;;;;;3.33;2.58;;;;;;;17.69;48.04;98885.16;232466;1174;115681;-66
2021/05/15 17:56:55;;;;;;;11.30;3.43;;;;;;;17.55;49.08;98884.33;233021;1174;114987;-66
2021/05/15 18:02:00;;;;;;;5.38;3.25;;;;;;;17.40;50.23;98882.76;232484;1174;116171;-66
2021/05/15 18:07:04;;;;;;;5.13;3.30;;;;;;;17.22;50.63;98883.64;233002;1174;115223;-66
2021/05/15 18:12:08;;;;;;;2.50;2.30;;;;;;;16.98;50.24;98884.63;233392;1174;115335;-66
2021/05/15 18:17:12;;;;;;;3.55;2.63;;;;;;;16.75;50.78;98893.66;233495;1174;114994;-66
2021/05/15 18:22:16;;;;;;;2.85;2.40;;;;;;;16.37;51.27;98888.31;233394;1174;115677;-66
2021/05/15 18:27:23;;;;;;;3.40;2.40;;;;;;;16.13;52.22;98893.80;233208;1174;115796;-66
2021/05/15 18:32:26;;;;;;;3.43;2.45;;;;;;;15.80;52.97;98894.80;232591;1174;139666;-66
2021/05/15 18:37:31;;;;;;;3.13;2.65;;;;;;;15.54;54.06;98907.73;232517;1174;116692;-68
2021/05/15 18:42:34;;;;;;;3.90;2.83;;;;;;;15.38;53.46;98915.15;234234;1174;115175;-66
2021/05/15 18:47:40;;;;;;;4.13;3.40;;;;;;;15.37;52.88;98920.80;233779;1174;115221;-66
2021/05/15 18:52:43;;;;;;;6.07;3.53;;;;;;;15.35;52.87;98917.60;234220;1174;137711;-66
2021/05/15 18:57:50;;;;;;;3.98;3.40;;;;;;;15.31;52.86;98919.25;235114;1174;115113;-66
2021/05/15 19:02:53;;;;;;;6.90;3.83;;;;;;;15.27;53.21;98923.63;234815;1174;116259;-66
2021/05/15 19:07:56;;;;;;;4.93;3.40;;;;;;;15.27;53.19;98916.37;234634;1174;115242;-66
2021/05/15 19:13:03;;;;;;;4.63;3.00;;;;;;;15.25;53.35;98920.42;233046;1174;115692;-65
2021/05/15 19:18:07;;;;;;;5.10;3.23;;;;;;;15.13;53.43;98918.91;232437;1174;115000;-68
2021/05/15 19:23:11;;;;;;;10.30;3.45;;;;;;;15.00;54.43;98916.08;234373;1174;115132;-65
2021/05/15 19:28:15;;;;;;;5.25;3.70;;;;;;;14.85;54.36;98924.30;233617;1174;115614;-66
2021/05/15 19:33:18;;;;;;;3.25;2.95;;;;;;;14.62;54.42;98929.32;232556;1169;115278;-66
2021/05/15 19:38:22;;;;;;;4.83;3.75;;;;;;;14.42;55.33;98932.94;233912;1174;115509;-66
2021/05/15 19:43:26;;;;;;;5.33;3.70;;;;;;;14.30;56.19;98924.43;232968;1174;116393;-66
2021/05/15 19:48:30;;;;;;;5.07;3.77;;;;;;;14.22;56.52;98930.38;232920;1174;116034;-69
2021/05/15 19:53:44;;;;;;;4.23;3.80;;;;;;;14.18;57.83;98921.28;233187;1172;116897;-68
2021/05/15 19:58:49;;;;;;;4.83;3.78;;;;;;;14.06;57.72;98923.52;232675;1176;117495;-68
2021/05/15 20:03:53;;;;;;;11.55;4.80;;;;;;;14.08;58.39;98915.97;232602;1176;116236;-68
2021/05/15 20:09:00;;;;;;;4.15;3.10;;;;;;;14.02;58.90;98911.75;232888;1176;116581;-68
2021/05/15 20:14:05;;;;;;;6.90;3.87;;;;;;;13.80;59.71;98914.79;233036;1174;116104;-69
2021/05/15 20:19:09;;;;;;;12.35;5.28;;;;;;;13.71;60.56;98921.81;233160;1176;115920;-68
2021/05/15 20:24:12;;;;;;;5.60;4.50;;;;;;;13.70;60.53;98923.69;232835;1174;117328;-67
2021/05/15 20:29:16;;;;;;;13.68;4.48;;;;;;;13.59;60.49;98921.32;232684;1174;116146;-68
2021/05/15 20:34:23;;;;;;;3.30;2.95;;;;;;;13.46;61.60;98933.41;233129;1174;116055;-67
2021/05/15 20:39:27;;;;;;;4.05;3.73;;;;;;;13.42;61.84;98949.23;233798;1174;115411;-68
2021/05/15 20:44:32;;;;;;;7.93;5.17;;;;;;;13.42;62.27;98959.94;234324;1174;116375;-66
2021/05/15 20:49:37;;;;;;;9.35;5.58;;;;;;;13.52;61.99;98963.64;233572;1174;115907;-68
2021/05/15 20:54:41;;;;;;;10.68;5.30;;;;;;;13.63;61.86;98971.38;234898;1174;115902;-66
2021/05/15 20:59:44;;;;;;;6.07;4.53;;;;;;;13.70;61.65;98969.22;235227;1174;114875;-65
2021/05/15 21:04:48;;;;;;;8.15;5.68;;;;;;;13.77;61.67;98968.91;235202;1169;115702;-65
2021/05/15 21:09:54;;;;;;;8.58;5.83;;;;;;;13.83;62.14;98960.58;235210;1174;115039;-66
2021/05/15 21:15:01;;;;;;;7.33;5.38;;;;;;;13.88;62.25;98964.31;235202;1169;115001;-66
2021/05/15 21:20:07;;;;;;;7.03;5.45;;;;;;;13.87;63.37;98960.03;233986;1170;114793;-68
2021/05/15 21:25:11;;;;;;;8.23;5.93;;;;;;;13.70;63.72;98958.52;234156;1174;115903;-66
2021/05/15 21:30:16;;;;;;;7.30;5.88;;;;;;;13.54;64.35;98946.23;233863;1174;115975;-68
2021/05/15 21:35:19;;;;;;;7.80;6.60;;;;;;;13.53;64.71;98939.27;233605;1174;115450;-68
2021/05/15 21:40:23;;;;;;;14.43;6.93;;;;;;;13.61;65.19;98936.04;234161;1174;115474;-66
2021/05/15 21:45:25;;;;;;;9.68;6.83;;;;;;;13.62;65.57;98931.48;233004;1167;115338;-68
2021/05/15 21:50:29;;;;;;;6.88;6.38;;;;;;;13.54;65.75;98926.69;232638;1174;116011;-68
2021/05/15 21:55:33;;;;;;;7.10;6.20;;;;;;;13.50;65.93;98923.75;232993;1174;114697;-68
2021/05/15 22:00:49;;;;;;;8.03;7.33;;;;;;;13.40;66.41;98929.16;232556;1174;116818;-68
2021/05/15 22:05:55;;;;;;;9.30;6.63;;;;;;;13.29;66.64;98919.55;232716;1174;115527;-68
2021/05/15 22:11:06;;;;;;;7.45;5.70;;;;;;;13.19;67.29;98923.05;233156;1171;115819;-68
2021/05/15 22:16:10;;;;;;;7.18;6.18;;;;;;;13.14;67.61;98918.50;232593;1174;115234;-68
2021/05/15 22:21:17;;;;;;;7.03;6.38;;;;;;;13.02;67.89;98912.63;232591;1174;115326;-67
2021/05/15 22:26:22;;;;;;;9.13;5.80;;;;;;;12.91;68.15;98916.38;232394;1174;115437;-67
2021/05/15 22:31:27;;;;;;;6.55;5.05;;;;;;;12.91;68.12;98910.22;233906;1173;115316;-68
2021/05/15 22:36:31;;;;;;;6.25;5.65;;;;;;;12.95;68.83;98906.74;233551;1171;115041;-68
2021/05/15 22:41:35;;;;;;;5.85;5.33;;;;;;;13.00;68.87;98903.27;233353;1174;116590;-68
2021/05/15 22:46:39;;;;;;;5.78;5.20;;;;;;;13.03;68.56;98892.02;233265;1174;115752;-68
2021/05/15 22:51:43;;;;;;;5.00;4.50;;;;;;;12.98;68.52;98884.00;232552;1174;115477;-68
2021/05/15 22:56:47;;;;;;;8.23;5.40;;;;;;;12.94;69.02;98873.04;233933;1174;114895;-68
2021/05/15 23:01:54;;;;;;;7.30;5.63;;;;;;;12.80;69.29;98874.69;234855;1174;114876;-68
2021/05/15 23:06:58;;;;;;;5.98;5.45;;;;;;;12.77;69.48;98870.67;234371;1174;115661;-68
2021/05/15 23:12:02;;;;;;;6.35;5.73;;;;;;;12.80;69.36;98866.66;235106;1173;114840;-65
2021/05/15 23:17:06;;;;;;;5.75;5.20;;;;;;;12.84;69.59;98867.70;233568;1174;115142;-68